sensor_id;sensor_type;location;lat;lon;timestamp;pressure;altitude;pressure_sealevel;temperature;humidity
71004;BME280;59025;42.050;-8.660;2022-11-30T00:00:27;101169.31;;;9.95;100.00
71004;BME280;59025;42.050;-8.660;2022-11-30T00:02:55;101167.72;;;9.94;100.00
71004;BME280;59025;42.050;-8.660;2022-11-30T00:05:23;101170.13;;;9.96;100.00
71004;BME280;59025;42.050;-8.660;2022-11-30T00:07:51;101160.63;;;9.96;100.00
71004;BME280;59025;42.050;-8.660;2022-11-30T00:10:19;101166.56;;;9.97;100.00
71004;BME280;59025;42.050;-8.660;2022-11-30T00:12:48;101161.78;;;9.94;100.00
71004;BME280;59025;42.050;-8.660;2022-11-30T00:15:16;101162.22;;;9.97;100.00
71004;BME280;59025;42.050;-8.660;2022-11-30T00:17:44;101155.22;;;10.06;100.00
71004;BME280;59025;42.050;-8.660;2022-11-30T00:20:12;101161.34;;;10.05;100.00
71004;BME280;59025;42.050;-8.660;2022-11-30T00:22:40;101152.06;;;10.04;100.00
71004;BME280;59025;42.050;-8.660;2022-11-30T00:25:08;101149.31;;;10.05;100.00
71004;BME280;59025;42.050;-8.660;2022-11-30T00:27:35;101143.69;;;10.02;100.00
71004;BME280;59025;42.050;-8.660;2022-11-30T00:30:06;101133.88;;;9.91;100.00
71004;BME280;59025;42.050;-8.660;2022-11-30T00:32:34;101156.31;;;9.82;100.00
71004;BME280;59025;42.050;-8.660;2022-11-30T00:35:02;101145.84;;;9.84;100.00
71004;BME280;59025;42.050;-8.660;2022-11-30T00:37:29;101126.19;;;9.91;100.00
71004;BME280;59025;42.050;-8.660;2022-11-30T00:39:57;101117.84;;;9.89;100.00
71004;BME280;59025;42.050;-8.660;2022-11-30T00:42:24;101127.97;;;9.76;100.00
71004;BME280;59025;42.050;-8.660;2022-11-30T00:44:51;101122.94;;;9.68;100.00
71004;BME280;59025;42.050;-8.660;2022-11-30T00:47:20;101116.09;;;9.75;100.00
71004;BME280;59025;42.050;-8.660;2022-11-30T00:49:48;101110.75;;;9.91;100.00
71004;BME280;59025;42.050;-8.660;2022-11-30T00:52:15;101109.09;;;9.83;100.00
71004;BME280;59025;42.050;-8.660;2022-11-30T00:54:43;101109.38;;;9.74;100.00
71004;BME280;59025;42.050;-8.660;2022-11-30T00:57:10;101106.28;;;9.64;100.00
71004;BME280;59025;42.050;-8.660;2022-11-30T00:59:38;101102.72;;;9.65;100.00
71004;BME280;59025;42.050;-8.660;2022-11-30T01:02:05;101101.75;;;9.66;100.00
71004;BME280;59025;42.050;-8.660;2022-11-30T01:04:34;101092.00;;;9.76;100.00
71004;BME280;59025;42.050;-8.660;2022-11-30T01:07:02;101086.13;;;9.82;100.00
71004;BME280;59025;42.050;-8.660;2022-11-30T01:09:29;101085.56;;;9.86;100.00
71004;BME280;59025;42.050;-8.660;2022-11-30T01:11:56;101065.44;;;9.90;100.00
71004;BME280;59025;42.050;-8.660;2022-11-30T01:14:24;101052.59;;;9.90;100.00
71004;BME280;59025;42.050;-8.660;2022-11-30T01:16:51;101045.88;;;9.89;100.00
71004;BME280;59025;42.050;-8.660;2022-11-30T01:19:19;101034.56;;;10.25;100.00
71004;BME280;59025;42.050;-8.660;2022-11-30T01:21:48;101038.75;;;10.05;100.00
71004;BME280;59025;42.050;-8.660;2022-11-30T01:24:15;101039.53;;;10.06;100.00
71004;BME280;59025;42.050;-8.660;2022-11-30T01:26:43;101030.00;;;10.21;100.00
71004;BME280;59025;42.050;-8.660;2022-11-30T01:29:10;101033.91;;;10.17;100.00
71004;BME280;59025;42.050;-8.660;2022-11-30T01:31:38;101024.53;;;10.30;100.00
71004;BME280;59025;42.050;-8.660;2022-11-30T01:34:05;101020.72;;;10.26;100.00
71004;BME280;59025;42.050;-8.660;2022-11-30T01:36:33;101032.06;;;10.11;100.00
71004;BME280;59025;42.050;-8.660;2022-11-30T01:39:05;101024.78;;;10.14;100.00
71004;BME280;59025;42.050;-8.660;2022-11-30T01:41:33;101021.97;;;10.09;100.00
71004;BME280;59025;42.050;-8.660;2022-11-30T01:47:04;101005.69;;;10.23;100.00
71004;BME280;59025;42.050;-8.660;2022-11-30T01:49:35;101014.09;;;10.11;100.00
71004;BME280;59025;42.050;-8.660;2022-11-30T01:52:06;101011.25;;;10.06;100.00
71004;BME280;59025;42.050;-8.660;2022-11-30T01:54:39;101024.94;;;10.06;100.00
71004;BME280;59025;42.050;-8.660;2022-11-30T01:57:12;101013.56;;;10.01;100.00
71004;BME280;59025;42.050;-8.660;2022-11-30T01:59:41;101021.66;;;9.98;100.00
71004;BME280;59025;42.050;-8.660;2022-11-30T02:02:08;101020.09;;;10.03;100.00
71004;BME280;59025;42.050;-8.660;2022-11-30T02:04:37;101008.25;;;10.02;100.00
71004;BME280;59025;42.050;-8.660;2022-11-30T02:07:06;101003.31;;;10.22;100.00
71004;BME280;59025;42.050;-8.660;2022-11-30T02:09:41;101001.47;;;10.16;100.00
71004;BME280;59025;42.050;-8.660;2022-11-30T02:12:18;100998.31;;;10.14;100.00
71004;BME280;59025;42.050;-8.660;2022-11-30T02:14:51;100994.81;;;10.21;100.00
71004;BME280;59025;42.050;-8.660;2022-11-30T02:17:24;100997.81;;;10.25;100.00
71004;BME280;59025;42.050;-8.660;2022-11-30T02:22:56;100996.53;;;10.42;100.00
71004;BME280;59025;42.050;-8.660;2022-11-30T02:25:35;100974.63;;;10.52;100.00
71004;BME280;59025;42.050;-8.660;2022-11-30T02:28:38;100983.44;;;10.37;100.00
71004;BME280;59025;42.050;-8.660;2022-11-30T02:31:13;100988.72;;;10.29;100.00
71004;BME280;59025;42.050;-8.660;2022-11-30T02:33:43;100990.34;;;10.36;100.00
71004;BME280;59025;42.050;-8.660;2022-11-30T02:36:12;100988.25;;;10.46;100.00
71004;BME280;59025;42.050;-8.660;2022-11-30T02:38:40;100959.63;;;10.56;100.00
71004;BME280;59025;42.050;-8.660;2022-11-30T02:41:08;100956.41;;;10.47;100.00
71004;BME280;59025;42.050;-8.660;2022-11-30T02:43:36;100957.97;;;10.42;100.00
71004;BME280;59025;42.050;-8.660;2022-11-30T02:46:10;100960.66;;;10.34;100.00
71004;BME280;59025;42.050;-8.660;2022-11-30T02:48:44;100961.06;;;10.31;100.00
71004;BME280;59025;42.050;-8.660;2022-11-30T02:51:18;100955.66;;;10.26;100.00
71004;BME280;59025;42.050;-8.660;2022-11-30T02:53:47;100952.81;;;10.14;100.00
71004;BME280;59025;42.050;-8.660;2022-11-30T02:56:16;100965.72;;;10.00;100.00
71004;BME280;59025;42.050;-8.660;2022-11-30T02:58:45;100968.97;;;10.08;100.00
71004;BME280;59025;42.050;-8.660;2022-11-30T03:01:14;100963.56;;;10.03;100.00
71004;BME280;59025;42.050;-8.660;2022-11-30T03:03:42;100971.16;;;9.90;100.00
71004;BME280;59025;42.050;-8.660;2022-11-30T03:06:09;100973.72;;;9.90;100.00
71004;BME280;59025;42.050;-8.660;2022-11-30T03:08:37;100966.84;;;9.91;100.00
71004;BME280;59025;42.050;-8.660;2022-11-30T03:11:05;100965.09;;;9.98;100.00
71004;BME280;59025;42.050;-8.660;2022-11-30T03:13:32;100968.69;;;10.03;100.00
71004;BME280;59025;42.050;-8.660;2022-11-30T03:16:05;100953.97;;;10.12;100.00
71004;BME280;59025;42.050;-8.660;2022-11-30T03:18:34;100942.75;;;10.19;100.00
71004;BME280;59025;42.050;-8.660;2022-11-30T03:21:04;100945.19;;;10.27;100.00
71004;BME280;59025;42.050;-8.660;2022-11-30T03:23:32;100936.31;;;10.30;100.00
71004;BME280;59025;42.050;-8.660;2022-11-30T03:26:00;100934.94;;;10.34;100.00
71004;BME280;59025;42.050;-8.660;2022-11-30T03:28:27;100930.84;;;10.39;100.00
71004;BME280;59025;42.050;-8.660;2022-11-30T03:30:55;100892.59;;;10.70;100.00
71004;BME280;59025;42.050;-8.660;2022-11-30T03:33:22;100883.16;;;10.84;100.00
71004;BME280;59025;42.050;-8.660;2022-11-30T03:35:59;100880.13;;;10.74;100.00
71004;BME280;59025;42.050;-8.660;2022-11-30T03:38:27;100892.19;;;10.67;100.00
71004;BME280;59025;42.050;-8.660;2022-11-30T03:41:03;100908.16;;;10.56;100.00
71004;BME280;59025;42.050;-8.660;2022-11-30T03:43:31;100905.94;;;10.46;100.00
71004;BME280;59025;42.050;-8.660;2022-11-30T03:45:58;100910.50;;;10.44;100.00
71004;BME280;59025;42.050;-8.660;2022-11-30T03:48:26;100917.78;;;10.41;100.00
71004;BME280;59025;42.050;-8.660;2022-11-30T03:50:54;100910.06;;;10.41;100.00
71004;BME280;59025;42.050;-8.660;2022-11-30T03:53:23;100920.09;;;10.29;100.00
71004;BME280;59025;42.050;-8.660;2022-11-30T03:55:52;100910.97;;;10.27;100.00
71004;BME280;59025;42.050;-8.660;2022-11-30T03:58:20;100906.63;;;10.27;100.00
71004;BME280;59025;42.050;-8.660;2022-11-30T04:00:48;100905.63;;;10.28;100.00
71004;BME280;59025;42.050;-8.660;2022-11-30T04:03:15;100910.41;;;10.31;100.00
71004;BME280;59025;42.050;-8.660;2022-11-30T04:05:43;100910.81;;;10.35;100.00
71004;BME280;59025;42.050;-8.660;2022-11-30T04:08:10;100894.66;;;10.41;100.00
71004;BME280;59025;42.050;-8.660;2022-11-30T04:10:39;100902.19;;;10.49;100.00
71004;BME280;59025;42.050;-8.660;2022-11-30T04:13:07;100883.59;;;10.47;100.00
71004;BME280;59025;42.050;-8.660;2022-11-30T04:15:36;100886.16;;;10.47;100.00
71004;BME280;59025;42.050;-8.660;2022-11-30T04:18:04;100882.06;;;10.59;100.00
71004;BME280;59025;42.050;-8.660;2022-11-30T04:20:31;100873.81;;;10.76;100.00
71004;BME280;59025;42.050;-8.660;2022-11-30T04:22:59;100857.81;;;10.87;100.00
71004;BME280;59025;42.050;-8.660;2022-11-30T04:25:26;100851.09;;;10.86;100.00
71004;BME280;59025;42.050;-8.660;2022-11-30T04:27:55;100846.50;;;10.75;100.00
71004;BME280;59025;42.050;-8.660;2022-11-30T04:30:22;100853.38;;;10.62;100.00
71004;BME280;59025;42.050;-8.660;2022-11-30T04:32:50;100851.78;;;10.61;100.00
71004;BME280;59025;42.050;-8.660;2022-11-30T04:35:17;100849.97;;;10.55;100.00
71004;BME280;59025;42.050;-8.660;2022-11-30T04:37:45;100861.63;;;10.51;100.00
71004;BME280;59025;42.050;-8.660;2022-11-30T04:40:13;100866.78;;;10.51;100.00
71004;BME280;59025;42.050;-8.660;2022-11-30T04:42:40;100879.41;;;10.46;100.00
71004;BME280;59025;42.050;-8.660;2022-11-30T04:45:10;100875.03;;;10.40;100.00
71004;BME280;59025;42.050;-8.660;2022-11-30T04:47:38;100886.13;;;10.40;100.00
71004;BME280;59025;42.050;-8.660;2022-11-30T04:50:07;100882.75;;;10.40;100.00
71004;BME280;59025;42.050;-8.660;2022-11-30T04:52:34;100876.63;;;10.41;100.00
71004;BME280;59025;42.050;-8.660;2022-11-30T04:55:02;100866.53;;;10.39;100.00
71004;BME280;59025;42.050;-8.660;2022-11-30T04:57:30;100845.97;;;10.46;100.00
71004;BME280;59025;42.050;-8.660;2022-11-30T04:59:57;100831.75;;;10.50;100.00
71004;BME280;59025;42.050;-8.660;2022-11-30T05:02:28;100816.34;;;10.63;100.00
71004;BME280;59025;42.050;-8.660;2022-11-30T05:04:55;100801.38;;;10.79;100.00
71004;BME280;59025;42.050;-8.660;2022-11-30T05:07:23;100783.19;;;10.94;100.00
71004;BME280;59025;42.050;-8.660;2022-11-30T05:09:50;100784.59;;;10.96;100.00
71004;BME280;59025;42.050;-8.660;2022-11-30T05:12:18;100781.41;;;10.88;100.00
71004;BME280;59025;42.050;-8.660;2022-11-30T05:14:46;100779.63;;;10.95;100.00
71004;BME280;59025;42.050;-8.660;2022-11-30T05:17:13;100778.63;;;10.83;100.00
71004;BME280;59025;42.050;-8.660;2022-11-30T05:19:42;100801.53;;;10.65;100.00
71004;BME280;59025;42.050;-8.660;2022-11-30T05:22:09;100811.41;;;10.55;100.00
71004;BME280;59025;42.050;-8.660;2022-11-30T05:24:37;100814.69;;;10.42;100.00
71004;BME280;59025;42.050;-8.660;2022-11-30T05:27:04;100804.72;;;10.20;100.00
71004;BME280;59025;42.050;-8.660;2022-11-30T05:29:32;100813.56;;;10.11;100.00
71004;BME280;59025;42.050;-8.660;2022-11-30T05:32:00;100805.25;;;10.09;100.00
71004;BME280;59025;42.050;-8.660;2022-11-30T05:34:27;100807.81;;;10.09;100.00
71004;BME280;59025;42.050;-8.660;2022-11-30T05:36:56;100800.88;;;10.09;100.00
71004;BME280;59025;42.050;-8.660;2022-11-30T05:39:25;100793.78;;;10.11;100.00
71004;BME280;59025;42.050;-8.660;2022-11-30T05:41:52;100774.81;;;10.12;100.00
71004;BME280;59025;42.050;-8.660;2022-11-30T05:44:20;100780.00;;;10.19;100.00
71004;BME280;59025;42.050;-8.660;2022-11-30T05:46:48;100785.72;;;10.21;100.00
71004;BME280;59025;42.050;-8.660;2022-11-30T05:49:15;100789.50;;;10.25;100.00
71004;BME280;59025;42.050;-8.660;2022-11-30T05:51:43;100791.88;;;10.26;100.00
71004;BME280;59025;42.050;-8.660;2022-11-30T05:54:12;100802.16;;;10.26;100.00
71004;BME280;59025;42.050;-8.660;2022-11-30T05:56:39;100803.56;;;10.29;100.00
71004;BME280;59025;42.050;-8.660;2022-11-30T05:59:08;100798.41;;;10.29;100.00
71004;BME280;59025;42.050;-8.660;2022-11-30T06:01:36;100800.97;;;10.29;100.00
71004;BME280;59025;42.050;-8.660;2022-11-30T06:04:04;100787.53;;;10.27;100.00
71004;BME280;59025;42.050;-8.660;2022-11-30T06:06:32;100784.38;;;10.31;100.00
71004;BME280;59025;42.050;-8.660;2022-11-30T06:08:59;100787.16;;;10.30;100.00
71004;BME280;59025;42.050;-8.660;2022-11-30T06:11:28;100792.50;;;10.35;100.00
71004;BME280;59025;42.050;-8.660;2022-11-30T06:13:56;100812.31;;;10.34;100.00
71004;BME280;59025;42.050;-8.660;2022-11-30T06:16:23;100818.63;;;10.32;100.00
71004;BME280;59025;42.050;-8.660;2022-11-30T06:18:50;100832.66;;;10.29;100.00
71004;BME280;59025;42.050;-8.660;2022-11-30T06:21:18;100832.25;;;10.26;100.00
71004;BME280;59025;42.050;-8.660;2022-11-30T06:23:45;100814.25;;;10.26;100.00
71004;BME280;59025;42.050;-8.660;2022-11-30T06:26:13;100804.53;;;10.21;100.00
71004;BME280;59025;42.050;-8.660;2022-11-30T06:28:42;100805.88;;;10.17;100.00
71004;BME280;59025;42.050;-8.660;2022-11-30T06:31:09;100801.34;;;10.19;100.00
71004;BME280;59025;42.050;-8.660;2022-11-30T06:33:37;100803.72;;;10.21;100.00
71004;BME280;59025;42.050;-8.660;2022-11-30T06:36:05;100805.31;;;10.22;100.00
71004;BME280;59025;42.050;-8.660;2022-11-30T06:38:32;100811.06;;;10.24;100.00
71004;BME280;59025;42.050;-8.660;2022-11-30T06:41:04;100807.09;;;10.21;100.00
71004;BME280;59025;42.050;-8.660;2022-11-30T06:43:33;100800.56;;;10.19;100.00
71004;BME280;59025;42.050;-8.660;2022-11-30T06:46:03;100783.16;;;10.21;100.00
71004;BME280;59025;42.050;-8.660;2022-11-30T06:48:31;100782.97;;;10.22;100.00
71004;BME280;59025;42.050;-8.660;2022-11-30T06:50:59;100787.13;;;10.23;100.00
71004;BME280;59025;42.050;-8.660;2022-11-30T06:53:27;100777.44;;;10.19;100.00
71004;BME280;59025;42.050;-8.660;2022-11-30T06:55:54;100788.66;;;10.18;100.00
71004;BME280;59025;42.050;-8.660;2022-11-30T06:58:22;100779.06;;;10.33;100.00
71004;BME280;59025;42.050;-8.660;2022-11-30T07:00:49;100782.84;;;10.43;100.00
71004;BME280;59025;42.050;-8.660;2022-11-30T07:03:18;100789.31;;;10.26;100.00
71004;BME280;59025;42.050;-8.660;2022-11-30T07:05:46;100791.09;;;10.26;100.00
71004;BME280;59025;42.050;-8.660;2022-11-30T07:08:15;100789.13;;;10.28;100.00
71004;BME280;59025;42.050;-8.660;2022-11-30T07:10:44;100786.28;;;10.10;100.00
71004;BME280;59025;42.050;-8.660;2022-11-30T07:13:13;100788.47;;;10.19;100.00
71004;BME280;59025;42.050;-8.660;2022-11-30T07:15:41;100788.34;;;10.27;100.00
71004;BME280;59025;42.050;-8.660;2022-11-30T07:18:09;100787.34;;;10.35;100.00
71004;BME280;59025;42.050;-8.660;2022-11-30T07:20:38;100788.25;;;10.14;100.00
71004;BME280;59025;42.050;-8.660;2022-11-30T07:23:06;100802.91;;;10.14;100.00
71004;BME280;59025;42.050;-8.660;2022-11-30T07:25:51;100788.13;;;10.22;100.00
71004;BME280;59025;42.050;-8.660;2022-11-30T07:28:36;100798.03;;;10.32;100.00
71004;BME280;59025;42.050;-8.660;2022-11-30T07:31:14;100789.53;;;10.31;100.00
71004;BME280;59025;42.050;-8.660;2022-11-30T07:33:44;100787.72;;;10.25;100.00
71004;BME280;59025;42.050;-8.660;2022-11-30T07:36:13;100781.56;;;10.20;100.00
71004;BME280;59025;42.050;-8.660;2022-11-30T07:38:42;100779.38;;;10.10;100.00
71004;BME280;59025;42.050;-8.660;2022-11-30T07:41:09;100785.06;;;10.06;100.00
71004;BME280;59025;42.050;-8.660;2022-11-30T07:43:37;100781.72;;;10.05;100.00
71004;BME280;59025;42.050;-8.660;2022-11-30T07:46:05;100768.19;;;10.03;100.00
71004;BME280;59025;42.050;-8.660;2022-11-30T07:48:33;100768.38;;;9.95;100.00
71004;BME280;59025;42.050;-8.660;2022-11-30T07:51:04;100764.75;;;9.90;100.00
71004;BME280;59025;42.050;-8.660;2022-11-30T07:53:33;100768.38;;;9.95;100.00
71004;BME280;59025;42.050;-8.660;2022-11-30T07:56:02;100770.72;;;9.90;100.00
71004;BME280;59025;42.050;-8.660;2022-11-30T07:58:30;100759.97;;;9.80;100.00
71004;BME280;59025;42.050;-8.660;2022-11-30T08:01:02;100761.19;;;9.84;100.00
71004;BME280;59025;42.050;-8.660;2022-11-30T08:03:29;100767.44;;;9.75;100.00
71004;BME280;59025;42.050;-8.660;2022-11-30T08:06:01;100766.53;;;9.55;100.00
71004;BME280;59025;42.050;-8.660;2022-11-30T08:08:34;100760.78;;;9.53;100.00
71004;BME280;59025;42.050;-8.660;2022-11-30T08:11:03;100759.09;;;9.67;100.00
71004;BME280;59025;42.050;-8.660;2022-11-30T08:13:30;100753.25;;;9.79;100.00
71004;BME280;59025;42.050;-8.660;2022-11-30T08:16:00;100750.09;;;9.84;100.00
71004;BME280;59025;42.050;-8.660;2022-11-30T08:18:28;100752.56;;;9.98;100.00
71004;BME280;59025;42.050;-8.660;2022-11-30T08:20:57;100744.84;;;9.98;100.00
71004;BME280;59025;42.050;-8.660;2022-11-30T08:23:24;100740.69;;;9.97;100.00
71004;BME280;59025;42.050;-8.660;2022-11-30T08:25:53;100738.13;;;9.97;100.00
71004;BME280;59025;42.050;-8.660;2022-11-30T08:28:21;100735.63;;;10.04;100.00
71004;BME280;59025;42.050;-8.660;2022-11-30T08:30:48;100728.72;;;10.04;100.00
71004;BME280;59025;42.050;-8.660;2022-11-30T08:33:16;100727.16;;;10.10;100.00
71004;BME280;59025;42.050;-8.660;2022-11-30T08:35:43;100728.75;;;10.17;100.00
71004;BME280;59025;42.050;-8.660;2022-11-30T08:38:11;100717.53;;;10.25;100.00
71004;BME280;59025;42.050;-8.660;2022-11-30T08:40:38;100726.03;;;10.32;100.00
71004;BME280;59025;42.050;-8.660;2022-11-30T08:43:07;100720.94;;;10.38;100.00
71004;BME280;59025;42.050;-8.660;2022-11-30T08:45:35;100729.03;;;10.42;100.00
71004;BME280;59025;42.050;-8.660;2022-11-30T08:48:03;100720.34;;;10.43;100.00
71004;BME280;59025;42.050;-8.660;2022-11-30T08:50:30;100714.78;;;10.39;100.00
71004;BME280;59025;42.050;-8.660;2022-11-30T08:52:58;100725.09;;;10.46;100.00
71004;BME280;59025;42.050;-8.660;2022-11-30T08:55:25;100718.34;;;10.45;100.00
71004;BME280;59025;42.050;-8.660;2022-11-30T08:57:59;100716.00;;;10.50;100.00
71004;BME280;59025;42.050;-8.660;2022-11-30T09:00:33;100704.94;;;10.49;100.00
71004;BME280;59025;42.050;-8.660;2022-11-30T09:03:00;100700.78;;;10.61;100.00
71004;BME280;59025;42.050;-8.660;2022-11-30T09:05:27;100705.16;;;10.67;100.00
71004;BME280;59025;42.050;-8.660;2022-11-30T09:07:55;100719.41;;;10.70;100.00
71004;BME280;59025;42.050;-8.660;2022-11-30T09:10:22;100721.59;;;10.73;100.00
71004;BME280;59025;42.050;-8.660;2022-11-30T09:12:50;100711.06;;;10.68;100.00
71004;BME280;59025;42.050;-8.660;2022-11-30T09:15:18;100717.44;;;10.72;100.00
71004;BME280;59025;42.050;-8.660;2022-11-30T09:17:47;100712.47;;;10.70;100.00
71004;BME280;59025;42.050;-8.660;2022-11-30T09:20:15;100712.88;;;10.74;100.00
71004;BME280;59025;42.050;-8.660;2022-11-30T09:22:42;100703.38;;;10.74;100.00
71004;BME280;59025;42.050;-8.660;2022-11-30T09:25:10;100702.22;;;10.83;100.00
71004;BME280;59025;42.050;-8.660;2022-11-30T09:27:37;100708.13;;;10.84;100.00
71004;BME280;59025;42.050;-8.660;2022-11-30T09:30:06;100705.56;;;10.90;100.00
71004;BME280;59025;42.050;-8.660;2022-11-30T09:32:34;100704.97;;;10.95;100.00
71004;BME280;59025;42.050;-8.660;2022-11-30T09:35:03;100706.16;;;10.92;100.00
71004;BME280;59025;42.050;-8.660;2022-11-30T09:37:31;100700.25;;;10.92;100.00
71004;BME280;59025;42.050;-8.660;2022-11-30T09:39:58;100701.41;;;10.89;100.00
71004;BME280;59025;42.050;-8.660;2022-11-30T09:42:41;100693.91;;;10.94;100.00
71004;BME280;59025;42.050;-8.660;2022-11-30T09:45:13;100687.56;;;10.90;100.00
71004;BME280;59025;42.050;-8.660;2022-11-30T09:48:17;100691.09;;;10.96;100.00
71004;BME280;59025;42.050;-8.660;2022-11-30T09:50:50;100691.09;;;10.96;100.00
71004;BME280;59025;42.050;-8.660;2022-11-30T09:53:21;100683.00;;;10.99;100.00
71004;BME280;59025;42.050;-8.660;2022-11-30T09:55:52;100686.56;;;10.98;100.00
71004;BME280;59025;42.050;-8.660;2022-11-30T09:58:26;100681.41;;;11.04;100.00
71004;BME280;59025;42.050;-8.660;2022-11-30T10:00:56;100674.28;;;11.00;100.00
71004;BME280;59025;42.050;-8.660;2022-11-30T10:03:23;100678.81;;;11.04;100.00
71004;BME280;59025;42.050;-8.660;2022-11-30T10:05:57;100680.59;;;11.10;100.00
71004;BME280;59025;42.050;-8.660;2022-11-30T10:08:48;100683.19;;;11.17;100.00
71004;BME280;59025;42.050;-8.660;2022-11-30T10:11:37;100681.19;;;11.25;100.00
71004;BME280;59025;42.050;-8.660;2022-11-30T10:14:21;100681.19;;;11.25;100.00
71004;BME280;59025;42.050;-8.660;2022-11-30T10:16:58;100686.34;;;11.19;100.00
71004;BME280;59025;42.050;-8.660;2022-11-30T10:19:45;100689.91;;;11.24;100.00
71004;BME280;59025;42.050;-8.660;2022-11-30T10:22:23;100695.84;;;11.25;100.00
71004;BME280;59025;42.050;-8.660;2022-11-30T10:25:05;100696.84;;;11.24;100.00
71004;BME280;59025;42.050;-8.660;2022-11-30T10:27:45;100693.06;;;11.26;100.00
71004;BME280;59025;42.050;-8.660;2022-11-30T10:30:17;100690.13;;;11.29;100.00
71004;BME280;59025;42.050;-8.660;2022-11-30T10:32:50;100688.91;;;11.25;100.00
71004;BME280;59025;42.050;-8.660;2022-11-30T10:35:25;100686.72;;;11.29;100.00
71004;BME280;59025;42.050;-8.660;2022-11-30T10:37:57;100682.00;;;11.19;100.00
71004;BME280;59025;42.050;-8.660;2022-11-30T10:40:31;100699.03;;;11.20;100.00
71004;BME280;59025;42.050;-8.660;2022-11-30T10:43:07;100695.88;;;11.18;100.00
71004;BME280;59025;42.050;-8.660;2022-11-30T10:45:41;100691.72;;;11.11;100.00
71004;BME280;59025;42.050;-8.660;2022-11-30T10:48:14;100680.81;;;11.09;100.00
71004;BME280;59025;42.050;-8.660;2022-11-30T10:50:44;100678.44;;;11.07;100.00
71004;BME280;59025;42.050;-8.660;2022-11-30T10:53:13;100674.09;;;11.01;100.00
71004;BME280;59025;42.050;-8.660;2022-11-30T10:55:44;100674.47;;;11.05;100.00
71004;BME280;59025;42.050;-8.660;2022-11-30T10:58:18;100665.19;;;11.04;100.00
71004;BME280;59025;42.050;-8.660;2022-11-30T11:00:57;100654.28;;;11.02;100.00
71004;BME280;59025;42.050;-8.660;2022-11-30T11:03:27;100642.59;;;11.06;100.00
71004;BME280;59025;42.050;-8.660;2022-11-30T11:06:11;100636.88;;;11.04;100.00
71004;BME280;59025;42.050;-8.660;2022-11-30T11:08:42;100623.38;;;11.08;100.00
71004;BME280;59025;42.050;-8.660;2022-11-30T11:11:29;100626.94;;;11.07;100.00
71004;BME280;59025;42.050;-8.660;2022-11-30T11:14:14;100642.00;;;11.04;100.00
71004;BME280;59025;42.050;-8.660;2022-11-30T11:16:51;100621.00;;;11.20;100.00
71004;BME280;59025;42.050;-8.660;2022-11-30T11:19:24;100605.13;;;11.29;100.00
71004;BME280;59025;42.050;-8.660;2022-11-30T11:21:59;100575.00;;;11.30;100.00
71004;BME280;59025;42.050;-8.660;2022-11-30T11:24:29;100576.16;;;11.34;100.00
71004;BME280;59025;42.050;-8.660;2022-11-30T11:26:57;100559.72;;;11.35;100.00
71004;BME280;59025;42.050;-8.660;2022-11-30T11:29:27;100542.75;;;11.08;100.00
71004;BME280;59025;42.050;-8.660;2022-11-30T11:32:17;100548.28;;;11.18;100.00
71004;BME280;59025;42.050;-8.660;2022-11-30T11:34:47;100525.72;;;11.13;100.00
71004;BME280;59025;42.050;-8.660;2022-11-30T11:37:22;100523.91;;;11.20;100.00
71004;BME280;59025;42.050;-8.660;2022-11-30T11:40:01;100509.66;;;11.18;100.00
71004;BME280;59025;42.050;-8.660;2022-11-30T11:42:32;100524.34;;;11.11;100.00
71004;BME280;59025;42.050;-8.660;2022-11-30T11:45:02;100524.91;;;11.19;100.00
71004;BME280;59025;42.050;-8.660;2022-11-30T11:47:38;100540.81;;;11.03;100.00
71004;BME280;59025;42.050;-8.660;2022-11-30T11:50:21;100549.53;;;11.02;100.00
71004;BME280;59025;42.050;-8.660;2022-11-30T11:53:16;100555.19;;;11.24;100.00
71004;BME280;59025;42.050;-8.660;2022-11-30T11:55:51;100551.84;;;11.23;100.00
71004;BME280;59025;42.050;-8.660;2022-11-30T11:58:27;100558.72;;;11.36;100.00
71004;BME280;59025;42.050;-8.660;2022-11-30T12:00:57;100556.13;;;11.42;100.00
71004;BME280;59025;42.050;-8.660;2022-11-30T12:03:32;100557.13;;;11.41;100.00
71004;BME280;59025;42.050;-8.660;2022-11-30T12:06:09;100560.72;;;11.34;100.00
71004;BME280;59025;42.050;-8.660;2022-11-30T12:08:43;100557.97;;;11.29;100.00
71004;BME280;59025;42.050;-8.660;2022-11-30T12:11:16;100563.84;;;11.42;100.00
71004;BME280;59025;42.050;-8.660;2022-11-30T12:13:45;100559.50;;;11.43;100.00
71004;BME280;59025;42.050;-8.660;2022-11-30T12:16:28;100559.63;;;11.54;100.00
71004;BME280;59025;42.050;-8.660;2022-11-30T12:19:04;100543.19;;;11.62;100.00
71004;BME280;59025;42.050;-8.660;2022-11-30T12:21:46;100533.63;;;11.69;100.00
71004;BME280;59025;42.050;-8.660;2022-11-30T12:24:32;100544.91;;;11.74;100.00
71004;BME280;59025;42.050;-8.660;2022-11-30T12:27:13;100541.72;;;11.79;100.00
71004;BME280;59025;42.050;-8.660;2022-11-30T12:29:49;100546.66;;;11.80;100.00
71004;BME280;59025;42.050;-8.660;2022-11-30T12:32:30;100540.13;;;11.78;100.00
71004;BME280;59025;42.050;-8.660;2022-11-30T12:35:12;100538.72;;;11.82;100.00
71004;BME280;59025;42.050;-8.660;2022-11-30T12:37:53;100535.50;;;11.93;100.00
71004;BME280;59025;42.050;-8.660;2022-11-30T12:40:32;100540.19;;;12.02;100.00
71004;BME280;59025;42.050;-8.660;2022-11-30T12:43:11;100528.31;;;11.95;100.00
71004;BME280;59025;42.050;-8.660;2022-11-30T12:45:43;100536.91;;;11.89;100.00
71004;BME280;59025;42.050;-8.660;2022-11-30T12:48:19;100536.53;;;11.85;100.00
71004;BME280;59025;42.050;-8.660;2022-11-30T12:51:01;100545.47;;;11.83;100.00
71004;BME280;59025;42.050;-8.660;2022-11-30T12:53:35;100535.97;;;11.77;100.00